createdAt,value
2023-01-27T00:00:55.540Z,99185.20
2023-01-27T00:03:22.691Z,99181.60
2023-01-27T00:05:49.972Z,99183.00
2023-01-27T00:08:17.415Z,99184.40
2023-01-27T00:10:44.139Z,99181.40
2023-01-27T00:13:27.890Z,99181.00
2023-01-27T00:15:55.762Z,99185.00
2023-01-27T00:18:26.079Z,99185.80
2023-01-27T00:21:11.160Z,99184.00
2023-01-27T00:23:55.980Z,99185.80
2023-01-27T00:26:22.811Z,99183.00
2023-01-27T00:28:49.259Z,99186.40
2023-01-27T00:31:37.125Z,99185.40
2023-01-27T00:34:10.978Z,99188.40
2023-01-27T00:36:40.460Z,99187.80
2023-01-27T00:39:09.711Z,99191.00
2023-01-27T00:41:36.719Z,99190.60
2023-01-27T00:44:05.712Z,99195.60
2023-01-27T00:46:33.464Z,99197.20
2023-01-27T00:49:00.163Z,99203.00
2023-01-27T00:51:26.777Z,99209.00
2023-01-27T00:53:53.285Z,99204.60
2023-01-27T00:56:19.724Z,99204.40
2023-01-27T00:58:46.841Z,99199.60
2023-01-27T01:01:16.945Z,99204.00
2023-01-27T01:03:44.301Z,99213.20
2023-01-27T01:06:15.707Z,99212.80
2023-01-27T01:08:43.659Z,99217.40
2023-01-27T01:11:15.031Z,99213.20
2023-01-27T01:13:43.894Z,99219.00
2023-01-27T01:16:17.939Z,99215.60
2023-01-27T01:18:45.441Z,99217.80
2023-01-27T01:21:12.913Z,99218.20
2023-01-27T01:23:43.371Z,99216.60
2023-01-27T01:26:13.279Z,99211.80
2023-01-27T01:28:40.173Z,99214.40
2023-01-27T01:31:17.410Z,99210.40
2023-01-27T01:33:44.294Z,99205.80
2023-01-27T01:36:14.971Z,99197.20
2023-01-27T01:38:41.536Z,99195.20
2023-01-27T01:41:15.198Z,99200.20
2023-01-27T01:43:41.794Z,99196.40
2023-01-27T01:46:12.404Z,99195.00
2023-01-27T01:49:02.802Z,99195.60
2023-01-27T01:51:41.899Z,99192.40
2023-01-27T01:54:14.594Z,99192.60
2023-01-27T01:56:58.039Z,99189.80
2023-01-27T01:59:49.797Z,99186.80
2023-01-27T02:02:25.184Z,99186.60
2023-01-27T02:05:15.938Z,99189.40
2023-01-27T02:08:29.659Z,99190.40
2023-01-27T02:13:47.294Z,99184.80
2023-01-27T02:16:14.177Z,99187.40
2023-01-27T02:18:41.827Z,99187.60
2023-01-27T02:21:09.289Z,99185.40
2023-01-27T02:23:48.918Z,99189.20
2023-01-27T02:26:25.561Z,99194.00
2023-01-27T02:28:59.660Z,99197.80
2023-01-27T02:31:26.363Z,99202.60
2023-01-27T02:33:59.707Z,99201.40
2023-01-27T02:36:29.441Z,99203.00
2023-01-27T02:38:58.292Z,99208.00
2023-01-27T02:41:31.852Z,99205.60
2023-01-27T02:43:58.524Z,99207.40
2023-01-27T02:46:25.141Z,99209.60
2023-01-27T02:48:52.236Z,99209.80
2023-01-27T02:51:18.944Z,99210.60
2023-01-27T02:53:46.453Z,99208.00
2023-01-27T02:56:13.314Z,99212.80
2023-01-27T02:58:39.796Z,99214.00
2023-01-27T03:01:07.332Z,99208.60
2023-01-27T03:03:33.922Z,99217.60
2023-01-27T03:06:00.557Z,99219.20
2023-01-27T03:08:26.982Z,99216.80
2023-01-27T03:10:56.066Z,99217.20
2023-01-27T03:13:28.059Z,99217.20
2023-01-27T03:16:14.592Z,99218.40
2023-01-27T03:18:41.240Z,99215.00
2023-01-27T03:21:07.972Z,99215.00
2023-01-27T03:23:34.800Z,99210.40
2023-01-27T03:26:06.748Z,99212.40
2023-01-27T03:28:34.001Z,99218.20
2023-01-27T03:31:06.599Z,99217.80
2023-01-27T03:33:33.521Z,99225.80
2023-01-27T03:36:23.066Z,99217.00
2023-01-27T03:39:08.339Z,99214.40
2023-01-27T03:41:53.137Z,99223.60
2023-01-27T03:44:37.962Z,99216.20
2023-01-27T03:47:04.410Z,99220.80
2023-01-27T03:49:30.809Z,99219.60
2023-01-27T03:51:57.319Z,99222.20
2023-01-27T03:54:23.739Z,99214.80
2023-01-27T03:56:50.237Z,99215.20
2023-01-27T03:59:16.670Z,99217.80
2023-01-27T04:01:44.176Z,99219.40
2023-01-27T04:04:30.231Z,99224.20
2023-01-27T04:07:02.690Z,99223.60
2023-01-27T04:09:34.508Z,99219.40
2023-01-27T04:12:05.193Z,99219.20
2023-01-27T04:14:38.224Z,99220.40
2023-01-27T04:17:13.271Z,99216.80
2023-01-27T04:19:40.727Z,99217.60
2023-01-27T04:22:08.864Z,99219.40
2023-01-27T04:24:35.347Z,99219.60
2023-01-27T04:27:08.241Z,99223.80
2023-01-27T04:29:40.865Z,99222.60
2023-01-27T04:32:13.070Z,99223.60
2023-01-27T04:34:41.097Z,99222.40
2023-01-27T04:37:09.781Z,99224.00
2023-01-27T04:39:36.676Z,99228.00
2023-01-27T04:42:03.924Z,99222.40
2023-01-27T04:44:30.898Z,99229.00
2023-01-27T04:46:57.521Z,99233.80
2023-01-27T04:49:26.671Z,99223.00
2023-01-27T04:51:53.606Z,99224.00
2023-01-27T04:54:20.045Z,99227.60
2023-01-27T04:56:59.859Z,99226.00
2023-01-27T04:59:27.390Z,99222.40
2023-01-27T05:01:53.946Z,99231.20
2023-01-27T05:04:20.750Z,99235.00
2023-01-27T05:06:47.316Z,99244.60
2023-01-27T05:09:13.909Z,99246.60
2023-01-27T05:11:40.395Z,99237.20
2023-01-27T05:14:06.902Z,99241.80
2023-01-27T05:16:33.459Z,99244.80
2023-01-27T05:18:59.998Z,99242.20
2023-01-27T05:21:31.005Z,99242.40
2023-01-27T05:23:57.967Z,99245.60
2023-01-27T05:26:27.782Z,99250.20
2023-01-27T05:28:57.406Z,99249.40
2023-01-27T05:31:28.456Z,99249.40
2023-01-27T05:33:59.033Z,99249.60
2023-01-27T05:36:26.730Z,99253.20
2023-01-27T05:38:55.341Z,99257.20
2023-01-27T05:41:22.976Z,99257.40
2023-01-27T05:43:55.252Z,99262.60
2023-01-27T05:46:26.356Z,99261.00
2023-01-27T05:48:56.704Z,99266.00
2023-01-27T05:51:25.717Z,99269.00
2023-01-27T05:53:53.790Z,99265.60
2023-01-27T05:56:21.647Z,99263.60
2023-01-27T05:58:49.165Z,99265.80
2023-01-27T06:01:22.457Z,99269.20
2023-01-27T06:03:49.862Z,99274.80
2023-01-27T06:06:19.941Z,99277.80
2023-01-27T06:08:48.241Z,99280.20
2023-01-27T06:11:17.986Z,99282.00
2023-01-27T06:13:44.449Z,99288.40
2023-01-27T06:16:14.508Z,99286.80
2023-01-27T06:18:41.138Z,99288.60
2023-01-27T06:21:10.384Z,99285.60
2023-01-27T06:23:38.311Z,99293.00
2023-01-27T06:26:13.124Z,99292.20
2023-01-27T06:28:40.077Z,99302.80
2023-01-27T06:31:13.940Z,99301.60
2023-01-27T06:33:40.922Z,99304.40
2023-01-27T06:36:11.685Z,99308.40
2023-01-27T06:38:38.545Z,99313.60
2023-01-27T06:41:05.373Z,99311.00
2023-01-27T06:43:32.193Z,99312.80
2023-01-27T06:45:58.770Z,99312.20
2023-01-27T06:48:27.135Z,99317.80
2023-01-27T06:50:55.493Z,99319.00
2023-01-27T06:53:22.591Z,99322.20
2023-01-27T06:55:49.288Z,99325.40
2023-01-27T06:58:16.598Z,99327.00
2023-01-27T07:00:43.267Z,99321.80
2023-01-27T07:03:12.782Z,99322.20
2023-01-27T07:05:41.326Z,99321.20
2023-01-27T07:08:08.326Z,99322.00
2023-01-27T07:10:34.876Z,99324.20
2023-01-27T07:13:06.895Z,99330.00
2023-01-27T07:15:34.347Z,99329.60
2023-01-27T07:18:02.249Z,99324.60
2023-01-27T07:20:29.448Z,99323.20
2023-01-27T07:23:00.623Z,99325.60
2023-01-27T07:25:28.281Z,99327.40
2023-01-27T07:27:57.563Z,99321.40
2023-01-27T07:30:25.370Z,99329.80
2023-01-27T07:32:52.369Z,99325.40
2023-01-27T07:35:19.357Z,99330.00
2023-01-27T07:37:46.107Z,99334.20
2023-01-27T07:40:16.300Z,99335.60
2023-01-27T07:42:42.961Z,99335.20
2023-01-27T07:45:10.482Z,99331.00
2023-01-27T07:47:37.044Z,99330.20
2023-01-27T07:50:03.729Z,99334.00
2023-01-27T07:52:30.234Z,99336.00
2023-01-27T07:54:56.676Z,99334.20
2023-01-27T07:57:23.176Z,99332.20
2023-01-27T07:59:53.095Z,99329.20
2023-01-27T08:02:19.581Z,99334.60
2023-01-27T08:04:53.537Z,99338.40
2023-01-27T08:07:21.422Z,99333.80
2023-01-27T08:09:48.070Z,99328.20
2023-01-27T08:12:14.808Z,99333.40
2023-01-27T08:14:41.504Z,99335.00
2023-01-27T08:17:08.109Z,99336.20
2023-01-27T08:19:34.518Z,99332.60
2023-01-27T08:22:04.681Z,99335.60
2023-01-27T08:24:31.191Z,99338.20
2023-01-27T08:26:57.700Z,99341.60
2023-01-27T08:29:24.394Z,99340.00
2023-01-27T08:31:50.854Z,99342.80
2023-01-27T08:34:32.907Z,99336.80
2023-01-27T08:36:59.414Z,99343.40
2023-01-27T08:39:25.973Z,99341.80
2023-01-27T08:41:52.530Z,99347.20
2023-01-27T08:44:19.487Z,99347.40
2023-01-27T08:46:46.165Z,99342.00
2023-01-27T08:49:15.566Z,99340.80
2023-01-27T08:51:42.799Z,99339.60
2023-01-27T08:54:09.796Z,99342.80
2023-01-27T08:56:36.314Z,99343.40
2023-01-27T08:59:02.913Z,99348.40
2023-01-27T09:01:29.460Z,99350.20
2023-01-27T09:03:55.951Z,99353.80
2023-01-27T09:06:22.549Z,99350.40
2023-01-27T09:09:11.136Z,99354.40
2023-01-27T09:11:42.628Z,99362.00
2023-01-27T09:14:10.689Z,99364.40
2023-01-27T09:16:37.246Z,99356.20
2023-01-27T09:19:04.290Z,99362.00
2023-01-27T09:21:31.575Z,99366.20
2023-01-27T09:23:58.176Z,99362.60
2023-01-27T09:26:24.759Z,99364.80
2023-01-27T09:28:51.254Z,99369.00
2023-01-27T09:31:18.369Z,99371.40
2023-01-27T09:33:45.105Z,99377.80
2023-01-27T09:36:17.510Z,99373.80
2023-01-27T09:38:57.312Z,99374.80
2023-01-27T09:41:57.870Z,99374.40
2023-01-27T09:44:52.319Z,99375.60
2023-01-27T09:47:53.230Z,99381.00
2023-01-27T09:51:30.910Z,99378.40
2023-01-27T09:54:41.483Z,99382.60
2023-01-27T09:57:51.745Z,99384.40
2023-01-27T10:00:26.168Z,99387.40
2023-01-27T10:03:27.901Z,99392.60
2023-01-27T10:06:34.942Z,99393.20
2023-01-27T10:09:22.519Z,99386.00
2023-01-27T10:12:01.460Z,99387.00
2023-01-27T10:15:06.645Z,99390.60
2023-01-27T10:18:05.078Z,99396.60
2023-01-27T10:21:38.254Z,99394.40
2023-01-27T10:24:22.701Z,99394.40
2023-01-27T10:27:02.562Z,99390.40
2023-01-27T10:29:44.395Z,99390.40
2023-01-27T10:32:52.447Z,99386.20
2023-01-27T10:35:22.609Z,99391.20
2023-01-27T10:38:15.312Z,99391.20
2023-01-27T10:40:50.893Z,99388.40
2023-01-27T10:43:42.380Z,99388.40
2023-01-27T10:46:38.908Z,99387.20
2023-01-27T10:49:24.030Z,99393.80
2023-01-27T10:52:41.458Z,99399.60
2023-01-27T10:55:21.935Z,99396.80
2023-01-27T10:58:06.185Z,99398.20
2023-01-27T11:01:18.905Z,99393.80
2023-01-27T11:03:43.556Z,99390.80
2023-01-27T11:06:37.615Z,99388.80
2023-01-27T11:09:23.655Z,99394.40
2023-01-27T11:11:52.506Z,99385.40
2023-01-27T11:14:30.361Z,99377.00
2023-01-27T11:17:14.424Z,99379.40
2023-01-27T11:19:57.297Z,99373.00
2023-01-27T11:22:35.260Z,99370.80
2023-01-27T11:25:23.189Z,99371.80
2023-01-27T11:28:19.679Z,99371.80
2023-01-27T11:31:15.151Z,99370.80
2023-01-27T11:34:28.039Z,99359.80
2023-01-27T11:36:54.663Z,99360.00
2023-01-27T11:39:21.725Z,99358.60
2023-01-27T11:41:57.860Z,99361.60
2023-01-27T11:44:34.323Z,99350.80
2023-01-27T11:47:07.138Z,99353.40
2023-01-27T11:49:48.630Z,99341.20
2023-01-27T11:52:19.781Z,99347.00
2023-01-27T11:54:59.839Z,99346.40
2023-01-27T11:57:28.377Z,99352.60
2023-01-27T12:00:18.269Z,99352.60
2023-01-27T12:02:55.116Z,99355.00
2023-01-27T12:05:31.587Z,99362.20
2023-01-27T12:08:02.416Z,99356.60
2023-01-27T12:10:42.408Z,99363.00
2023-01-27T12:13:17.574Z,99362.40
2023-01-27T12:15:53.328Z,99364.80
2023-01-27T12:18:20.902Z,99368.40
2023-01-27T12:20:57.359Z,99362.20
2023-01-27T12:23:35.981Z,99365.20
2023-01-27T12:26:07.443Z,99366.60
2023-01-27T12:28:47.508Z,99366.80
2023-01-27T12:31:32.882Z,99365.00
2023-01-27T12:34:18.990Z,99356.60
2023-01-27T12:36:47.918Z,99356.80
2023-01-27T12:39:38.323Z,99360.40
2023-01-27T12:42:05.827Z,99371.00
2023-01-27T12:44:43.694Z,99365.40
2023-01-27T12:47:25.903Z,99365.40
2023-01-27T12:50:24.475Z,99359.80
2023-01-27T12:53:20.917Z,99356.60
2023-01-27T12:56:14.766Z,99351.40
2023-01-27T12:59:00.271Z,99353.60
2023-01-27T13:01:33.947Z,99354.60
2023-01-27T13:04:17.113Z,99357.00
2023-01-27T13:06:55.221Z,99356.60
2023-01-27T13:09:35.764Z,99352.60
2023-01-27T13:12:15.445Z,99359.20
2023-01-27T13:14:44.127Z,99371.20
2023-01-27T13:17:48.682Z,99367.60
2023-01-27T13:20:47.022Z,99367.40
2023-01-27T13:23:25.386Z,99369.80
2023-01-27T13:26:10.326Z,99371.60
2023-01-27T13:29:06.445Z,99382.20
2023-01-27T13:31:43.455Z,99382.80
2023-01-27T13:34:29.707Z,99385.20
2023-01-27T13:37:07.808Z,99383.00
2023-01-27T13:40:14.154Z,99382.60
2023-01-27T13:43:13.619Z,99389.40
2023-01-27T13:46:11.544Z,99392.60
2023-01-27T13:48:59.163Z,99399.40
2023-01-27T13:51:30.283Z,99393.80
2023-01-27T13:54:02.797Z,99396.80
2023-01-27T13:56:51.753Z,99397.20
2023-01-27T14:00:05.023Z,99396.20
2023-01-27T14:03:03.767Z,99400.40
2023-01-27T14:05:45.086Z,99406.20
2023-01-27T14:08:42.404Z,99407.40
2023-01-27T14:11:34.537Z,99405.80
2023-01-27T14:14:29.994Z,99408.20
2023-01-27T14:17:26.622Z,99405.20
2023-01-27T14:20:26.328Z,99400.40
2023-01-27T14:23:03.597Z,99399.00
2023-01-27T14:25:46.144Z,99400.80
2023-01-27T14:28:25.115Z,99405.20
2023-01-27T14:31:01.145Z,99403.20
2023-01-27T14:33:51.165Z,99398.60
2023-01-27T14:36:30.734Z,99404.40
2023-01-27T14:39:18.282Z,99410.20
2023-01-27T14:41:56.938Z,99407.40
2023-01-27T14:45:02.888Z,99408.60
2023-01-27T14:47:56.823Z,99409.60
2023-01-27T14:50:51.988Z,99408.80
2023-01-27T14:53:57.343Z,99408.00
2023-01-27T14:57:08.743Z,99413.20
2023-01-27T15:00:05.317Z,99419.80
2023-01-27T15:02:48.489Z,99416.00
2023-01-27T15:05:56.326Z,99413.60
2023-01-27T15:08:50.815Z,99414.20
2023-01-27T15:11:50.320Z,99414.80
2023-01-27T15:15:05.952Z,99418.00
2023-01-27T15:17:54.038Z,99415.40
2023-01-27T15:20:47.851Z,99412.00
2023-01-27T15:23:42.831Z,99414.40
2023-01-27T15:26:11.079Z,99415.00
2023-01-27T15:28:42.567Z,99415.80
2023-01-27T15:31:21.494Z,99418.60
2023-01-27T15:33:58.974Z,99416.20
2023-01-27T15:36:29.081Z,99423.00
2023-01-27T15:39:28.881Z,99424.60
2023-01-27T15:42:02.128Z,99425.20
2023-01-27T15:44:41.786Z,99425.20
2023-01-27T15:47:23.484Z,99431.40
2023-01-27T15:50:04.347Z,99430.20
2023-01-27T15:52:42.481Z,99427.80
2023-01-27T15:55:26.548Z,99434.80
2023-01-27T15:58:09.908Z,99433.60
2023-01-27T16:00:41.876Z,99438.40
2023-01-27T16:03:37.815Z,99440.00
2023-01-27T16:06:23.985Z,99442.00
2023-01-27T16:09:00.923Z,99443.40
2023-01-27T16:11:30.391Z,99439.20
2023-01-27T16:14:12.032Z,99443.20
2023-01-27T16:16:40.781Z,99437.40
2023-01-27T16:19:11.076Z,99439.80
2023-01-27T16:21:53.805Z,99444.40
2023-01-27T16:24:33.245Z,99438.60
2023-01-27T16:27:41.631Z,99435.80
2023-01-27T16:30:21.578Z,99444.80
2023-01-27T16:33:07.704Z,99444.80
2023-01-27T16:35:45.560Z,99450.60
2023-01-27T16:38:31.626Z,99448.00
2023-01-27T16:41:09.228Z,99445.40
2023-01-27T16:43:50.504Z,99445.00
2023-01-27T16:46:58.377Z,99447.80
2023-01-27T16:49:39.727Z,99455.60
2023-01-27T16:52:16.555Z,99454.40
2023-01-27T16:54:45.597Z,99450.00
2023-01-27T16:57:36.496Z,99450.60
2023-01-27T17:00:17.734Z,99448.40
2023-01-27T17:02:44.481Z,99449.00
2023-01-27T17:05:18.265Z,99448.20
2023-01-27T17:08:14.135Z,99445.60
2023-01-27T17:11:04.872Z,99447.60
2023-01-27T17:13:36.458Z,99454.20
2023-01-27T17:16:07.020Z,99454.40
2023-01-27T17:18:51.751Z,99461.00
2023-01-27T17:21:34.643Z,99460.00
2023-01-27T17:24:10.798Z,99456.20
2023-01-27T17:26:37.471Z,99465.00
2023-01-27T17:29:04.376Z,99458.40
2023-01-27T17:31:38.506Z,99469.20
2023-01-27T17:34:05.344Z,99470.80
2023-01-27T17:36:32.069Z,99460.80
2023-01-27T17:38:58.621Z,99462.80
2023-01-27T17:41:38.438Z,99473.00
2023-01-27T17:44:13.871Z,99470.60
2023-01-27T17:46:41.425Z,99472.20
2023-01-27T17:49:19.228Z,99468.60
2023-01-27T17:51:51.410Z,99467.40
2023-01-27T17:54:35.382Z,99474.20
2023-01-27T17:57:13.585Z,99470.80
2023-01-27T17:59:46.932Z,99469.20
2023-01-27T18:02:36.434Z,99475.00
2023-01-27T18:05:17.982Z,99479.20
2023-01-27T18:07:44.759Z,99473.60
2023-01-27T18:10:40.581Z,99476.60
2023-01-27T18:13:19.149Z,99478.40
2023-01-27T18:16:01.238Z,99483.00
2023-01-27T18:18:35.049Z,99485.00
2023-01-27T18:21:04.322Z,99485.60
2023-01-27T18:23:44.574Z,99489.60
2023-01-27T18:26:33.619Z,99482.40
2023-01-27T18:29:13.129Z,99493.80
2023-01-27T18:31:59.467Z,99490.20
2023-01-27T18:34:31.092Z,99490.00
2023-01-27T18:37:08.755Z,99499.80
2023-01-27T18:39:39.344Z,99497.40
2023-01-27T18:42:21.890Z,99496.40
2023-01-27T18:44:51.500Z,99506.00
2023-01-27T18:47:18.165Z,99502.00
2023-01-27T18:50:10.259Z,99503.20
2023-01-27T18:52:37.103Z,99501.80
2023-01-27T18:55:23.685Z,99501.80
2023-01-27T18:57:58.150Z,99504.20
2023-01-27T19:00:35.864Z,99509.40
2023-01-27T19:03:03.571Z,99511.20
2023-01-27T19:05:34.536Z,99512.40
2023-01-27T19:08:02.363Z,99513.20
2023-01-27T19:10:33.552Z,99515.40
2023-01-27T19:13:02.915Z,99516.00
2023-01-27T19:15:56.904Z,99517.60
2023-01-27T19:18:29.437Z,99516.40
2023-01-27T19:20:55.840Z,99520.20
2023-01-27T19:23:22.334Z,99512.00
2023-01-27T19:25:55.976Z,99513.00
2023-01-27T19:28:38.608Z,99525.00
2023-01-27T19:31:07.311Z,99520.40
2023-01-27T19:33:34.759Z,99524.40
2023-01-27T19:36:11.166Z,99532.60
2023-01-27T19:38:37.589Z,99529.40
2023-01-27T19:41:04.114Z,99529.80
2023-01-27T19:43:30.708Z,99532.80
2023-01-27T19:45:57.460Z,99531.20
2023-01-27T19:48:24.533Z,99533.40
2023-01-27T19:50:52.441Z,99542.20
2023-01-27T19:53:20.093Z,99543.40
2023-01-27T19:55:47.480Z,99548.40
2023-01-27T19:58:24.789Z,99549.60
2023-01-27T20:00:52.843Z,99546.20
2023-01-27T20:03:19.530Z,99554.80
2023-01-27T20:05:46.625Z,99558.40
2023-01-27T20:08:17.217Z,99549.80
2023-01-27T20:10:44.968Z,99559.20
2023-01-27T20:13:20.043Z,99558.20
2023-01-27T20:15:47.265Z,99554.80
2023-01-27T20:18:18.871Z,99566.80
2023-01-27T20:20:46.621Z,99572.40
2023-01-27T20:23:16.960Z,99566.40
2023-01-27T20:25:43.781Z,99573.00
2023-01-27T20:28:12.091Z,99572.60
2023-01-27T20:30:38.847Z,99571.60
2023-01-27T20:33:05.697Z,99575.80
2023-01-27T20:35:32.355Z,99575.60
2023-01-27T20:37:59.009Z,99577.20
2023-01-27T20:40:29.533Z,99574.40
2023-01-27T20:42:56.402Z,99583.60
2023-01-27T20:45:23.271Z,99573.40
2023-01-27T20:47:54.222Z,99575.00
2023-01-27T20:50:24.347Z,99576.60
2023-01-27T20:52:53.187Z,99576.00
2023-01-27T20:55:19.724Z,99580.80
2023-01-27T20:57:47.643Z,99574.60
2023-01-27T21:00:20.821Z,99572.60
2023-01-27T21:02:48.578Z,99574.60
2023-01-27T21:05:16.083Z,99574.40
2023-01-27T21:07:43.152Z,99574.20
2023-01-27T21:10:10.425Z,99572.80
2023-01-27T21:12:36.900Z,99566.20
2023-01-27T21:15:09.461Z,99565.20
2023-01-27T21:17:35.991Z,99566.00
2023-01-27T21:20:02.591Z,99563.80
2023-01-27T21:22:29.124Z,99565.80
2023-01-27T21:24:55.627Z,99561.60
2023-01-27T21:27:22.066Z,99566.60
2023-01-27T21:29:48.651Z,99567.40
2023-01-27T21:32:15.089Z,99564.80
2023-01-27T21:34:41.522Z,99561.40
2023-01-27T21:37:07.947Z,99560.40
2023-01-27T21:39:34.437Z,99563.40
2023-01-27T21:42:00.866Z,99555.40
2023-01-27T21:45:02.453Z,99555.00
2023-01-27T21:47:28.927Z,99565.00
2023-01-27T21:50:01.369Z,99560.80
2023-01-27T21:52:35.488Z,99565.20
2023-01-27T21:55:04.618Z,99565.60
2023-01-27T21:57:31.675Z,99567.00
2023-01-27T21:59:58.302Z,99568.80
2023-01-27T22:02:25.628Z,99567.80
2023-01-27T22:04:52.375Z,99559.00
2023-01-27T22:07:19.811Z,99566.80
2023-01-27T22:09:46.610Z,99565.80
2023-01-27T22:12:16.276Z,99564.60
2023-01-27T22:14:43.688Z,99558.60
2023-01-27T22:17:10.959Z,99558.60
2023-01-27T22:19:39.045Z,99556.20
2023-01-27T22:22:08.214Z,99555.40
2023-01-27T22:24:34.790Z,99549.60
2023-01-27T22:27:01.319Z,99548.00
2023-01-27T22:29:27.754Z,99549.00
2023-01-27T22:31:54.256Z,99550.60
2023-01-27T22:34:20.709Z,99552.60
2023-01-27T22:36:49.721Z,99549.20
2023-01-27T22:39:16.949Z,99551.60
2023-01-27T22:41:45.238Z,99550.20
2023-01-27T22:44:13.481Z,99545.60
2023-01-27T22:46:42.503Z,99547.00
2023-01-27T22:49:10.697Z,99547.80
2023-01-27T22:51:37.428Z,99544.60
2023-01-27T22:54:04.188Z,99541.60
2023-01-27T22:56:31.060Z,99545.80
2023-01-27T22:58:57.702Z,99550.60
2023-01-27T23:01:24.142Z,99545.40
2023-01-27T23:03:50.602Z,99547.40
2023-01-27T23:06:17.141Z,99548.60
2023-01-27T23:08:43.730Z,99545.20
2023-01-27T23:11:10.247Z,99543.60
2023-01-27T23:13:36.705Z,99542.00
2023-01-27T23:16:03.867Z,99541.80
2023-01-27T23:18:30.519Z,99535.60
2023-01-27T23:21:04.408Z,99536.20
2023-01-27T23:23:30.973Z,99535.20
2023-01-27T23:25:57.537Z,99539.60
2023-01-27T23:28:24.056Z,99537.00
2023-01-27T23:30:51.621Z,99535.60
2023-01-27T23:33:19.999Z,99535.60
2023-01-27T23:35:46.904Z,99530.80
2023-01-27T23:38:30.390Z,99526.00
2023-01-27T23:41:18.490Z,99524.40
2023-01-27T23:43:50.375Z,99524.20
2023-01-27T23:46:16.876Z,99537.60
2023-01-27T23:48:43.534Z,99535.80
2023-01-27T23:51:13.561Z,99531.80
2023-01-27T23:53:39.973Z,99538.60
2023-01-27T23:56:09.016Z,99534.00
2023-01-27T23:58:35.477Z,99535.60
